sensor_id;sensor_type;location;lat;lon;timestamp;P1;durP1;ratioP1;P2;durP2;ratioP2
6342;SDS011;3204;42.698;23.298;2022-10-16T00:01:12;14.48;;;10.50;;
6342;SDS011;3204;42.698;23.298;2022-10-16T00:03:40;17.07;;;10.93;;
6342;SDS011;3204;42.698;23.298;2022-10-16T00:06:07;10.93;;;9.83;;
6342;SDS011;3204;42.698;23.298;2022-10-16T00:08:33;12.70;;;9.60;;
6342;SDS011;3204;42.698;23.298;2022-10-16T00:11:33;10.82;;;9.82;;
6342;SDS011;3204;42.698;23.298;2022-10-16T00:13:57;10.57;;;9.67;;
6342;SDS011;3204;42.698;23.298;2022-10-16T00:16:24;10.65;;;9.63;;
6342;SDS011;3204;42.698;23.298;2022-10-16T00:18:50;13.52;;;9.73;;
6342;SDS011;3204;42.698;23.298;2022-10-16T00:21:17;12.63;;;9.60;;
6342;SDS011;3204;42.698;23.298;2022-10-16T00:23:45;9.77;;;8.88;;
6342;SDS011;3204;42.698;23.298;2022-10-16T00:26:11;10.00;;;9.20;;
6342;SDS011;3204;42.698;23.298;2022-10-16T00:28:41;11.00;;;8.85;;
6342;SDS011;3204;42.698;23.298;2022-10-16T00:31:08;9.97;;;9.00;;
6342;SDS011;3204;42.698;23.298;2022-10-16T00:33:35;8.98;;;8.38;;
6342;SDS011;3204;42.698;23.298;2022-10-16T00:36:02;12.07;;;8.80;;
6342;SDS011;3204;42.698;23.298;2022-10-16T00:38:29;9.83;;;8.93;;
6342;SDS011;3204;42.698;23.298;2022-10-16T00:40:56;9.45;;;8.65;;
6342;SDS011;3204;42.698;23.298;2022-10-16T00:46:04;9.40;;;8.40;;
6342;SDS011;3204;42.698;23.298;2022-10-16T00:51:31;9.27;;;8.27;;
6342;SDS011;3204;42.698;23.298;2022-10-16T00:53:59;10.23;;;8.40;;
6342;SDS011;3204;42.698;23.298;2022-10-16T00:56:26;9.57;;;8.50;;
6342;SDS011;3204;42.698;23.298;2022-10-16T00:58:51;8.32;;;7.57;;
6342;SDS011;3204;42.698;23.298;2022-10-16T01:01:17;10.37;;;8.00;;
6342;SDS011;3204;42.698;23.298;2022-10-16T01:03:42;13.18;;;8.98;;
6342;SDS011;3204;42.698;23.298;2022-10-16T01:06:19;8.63;;;7.83;;
6342;SDS011;3204;42.698;23.298;2022-10-16T01:08:53;9.30;;;8.40;;
6342;SDS011;3204;42.698;23.298;2022-10-16T01:12:01;9.30;;;8.50;;
6342;SDS011;3204;42.698;23.298;2022-10-16T01:17:45;8.63;;;8.07;;
6342;SDS011;3204;42.698;23.298;2022-10-16T01:28:32;9.45;;;8.65;;
6342;SDS011;3204;42.698;23.298;2022-10-16T01:31:03;8.57;;;7.78;;
6342;SDS011;3204;42.698;23.298;2022-10-16T01:33:37;10.47;;;8.40;;
6342;SDS011;3204;42.698;23.298;2022-10-16T01:36:12;8.90;;;8.17;;
6342;SDS011;3204;42.698;23.298;2022-10-16T01:38:40;8.93;;;8.00;;
6342;SDS011;3204;42.698;23.298;2022-10-16T01:41:13;9.07;;;8.37;;
6342;SDS011;3204;42.698;23.298;2022-10-16T01:43:53;10.57;;;8.40;;
6342;SDS011;3204;42.698;23.298;2022-10-16T01:46:26;10.33;;;8.13;;
6342;SDS011;3204;42.698;23.298;2022-10-16T01:48:54;13.03;;;8.93;;
6342;SDS011;3204;42.698;23.298;2022-10-16T01:51:20;11.43;;;9.43;;
6342;SDS011;3204;42.698;23.298;2022-10-16T01:53:49;13.07;;;8.40;;
6342;SDS011;3204;42.698;23.298;2022-10-16T01:56:19;10.57;;;9.50;;
6342;SDS011;3204;42.698;23.298;2022-10-16T01:58:52;12.57;;;9.23;;
6342;SDS011;3204;42.698;23.298;2022-10-16T02:01:31;12.30;;;9.40;;
6342;SDS011;3204;42.698;23.298;2022-10-16T02:04:01;9.73;;;8.83;;
6342;SDS011;3204;42.698;23.298;2022-10-16T02:06:32;11.07;;;9.00;;
6342;SDS011;3204;42.698;23.298;2022-10-16T02:08:58;10.40;;;9.40;;
6342;SDS011;3204;42.698;23.298;2022-10-16T02:11:24;10.97;;;8.87;;
6342;SDS011;3204;42.698;23.298;2022-10-16T02:13:51;11.80;;;10.37;;
6342;SDS011;3204;42.698;23.298;2022-10-16T02:16:21;21.67;;;14.90;;
6342;SDS011;3204;42.698;23.298;2022-10-16T02:18:57;11.33;;;10.13;;
6342;SDS011;3204;42.698;23.298;2022-10-16T02:21:27;15.27;;;10.37;;
6342;SDS011;3204;42.698;23.298;2022-10-16T02:24:03;14.87;;;10.57;;
6342;SDS011;3204;42.698;23.298;2022-10-16T02:26:51;17.70;;;11.13;;
6342;SDS011;3204;42.698;23.298;2022-10-16T02:29:33;10.33;;;9.27;;
6342;SDS011;3204;42.698;23.298;2022-10-16T02:32:04;14.77;;;9.40;;
6342;SDS011;3204;42.698;23.298;2022-10-16T02:34:32;10.37;;;9.33;;
6342;SDS011;3204;42.698;23.298;2022-10-16T02:36:59;10.17;;;9.17;;
6342;SDS011;3204;42.698;23.298;2022-10-16T02:39:27;11.07;;;9.57;;
6342;SDS011;3204;42.698;23.298;2022-10-16T02:41:53;10.53;;;9.43;;
6342;SDS011;3204;42.698;23.298;2022-10-16T02:44:19;11.80;;;9.13;;
6342;SDS011;3204;42.698;23.298;2022-10-16T02:46:44;12.20;;;9.50;;
6342;SDS011;3204;42.698;23.298;2022-10-16T02:49:10;12.17;;;9.20;;
6342;SDS011;3204;42.698;23.298;2022-10-16T02:51:36;12.20;;;9.10;;
6342;SDS011;3204;42.698;23.298;2022-10-16T02:54:01;11.10;;;9.83;;
6342;SDS011;3204;42.698;23.298;2022-10-16T02:56:27;14.37;;;9.77;;
6342;SDS011;3204;42.698;23.298;2022-10-16T02:58:53;13.53;;;9.50;;
6342;SDS011;3204;42.698;23.298;2022-10-16T03:01:18;11.77;;;10.00;;
6342;SDS011;3204;42.698;23.298;2022-10-16T03:03:44;11.03;;;9.90;;
6342;SDS011;3204;42.698;23.298;2022-10-16T03:06:09;14.27;;;10.10;;
6342;SDS011;3204;42.698;23.298;2022-10-16T03:08:35;13.10;;;10.67;;
6342;SDS011;3204;42.698;23.298;2022-10-16T03:11:00;18.20;;;12.20;;
6342;SDS011;3204;42.698;23.298;2022-10-16T03:13:25;16.67;;;12.90;;
6342;SDS011;3204;42.698;23.298;2022-10-16T03:15:51;16.70;;;12.33;;
6342;SDS011;3204;42.698;23.298;2022-10-16T03:18:16;14.30;;;12.80;;
6342;SDS011;3204;42.698;23.298;2022-10-16T03:20:42;14.40;;;12.50;;
6342;SDS011;3204;42.698;23.298;2022-10-16T03:23:08;18.20;;;12.40;;
6342;SDS011;3204;42.698;23.298;2022-10-16T03:25:34;15.30;;;12.20;;
6342;SDS011;3204;42.698;23.298;2022-10-16T03:28:00;12.10;;;10.53;;
6342;SDS011;3204;42.698;23.298;2022-10-16T03:30:25;11.77;;;10.77;;
6342;SDS011;3204;42.698;23.298;2022-10-16T03:32:51;13.33;;;10.63;;
6342;SDS011;3204;42.698;23.298;2022-10-16T03:35:20;11.80;;;10.53;;
6342;SDS011;3204;42.698;23.298;2022-10-16T03:37:47;13.43;;;10.70;;
6342;SDS011;3204;42.698;23.298;2022-10-16T03:40:12;16.53;;;11.00;;
6342;SDS011;3204;42.698;23.298;2022-10-16T03:42:38;15.93;;;12.13;;
6342;SDS011;3204;42.698;23.298;2022-10-16T03:45:04;15.07;;;11.50;;
6342;SDS011;3204;42.698;23.298;2022-10-16T03:47:30;18.20;;;11.00;;
6342;SDS011;3204;42.698;23.298;2022-10-16T03:49:58;14.20;;;11.63;;
6342;SDS011;3204;42.698;23.298;2022-10-16T03:52:24;25.00;;;12.10;;
6342;SDS011;3204;42.698;23.298;2022-10-16T03:54:49;25.90;;;12.03;;
6342;SDS011;3204;42.698;23.298;2022-10-16T03:57:14;20.53;;;11.67;;
6342;SDS011;3204;42.698;23.298;2022-10-16T03:59:40;16.10;;;12.03;;
6342;SDS011;3204;42.698;23.298;2022-10-16T04:02:05;19.03;;;11.37;;
6342;SDS011;3204;42.698;23.298;2022-10-16T04:04:31;15.07;;;11.10;;
6342;SDS011;3204;42.698;23.298;2022-10-16T04:06:57;18.13;;;11.93;;
6342;SDS011;3204;42.698;23.298;2022-10-16T04:09:22;14.00;;;11.83;;
6342;SDS011;3204;42.698;23.298;2022-10-16T04:11:48;13.37;;;11.93;;
6342;SDS011;3204;42.698;23.298;2022-10-16T04:14:14;13.77;;;11.97;;
6342;SDS011;3204;42.698;23.298;2022-10-16T04:16:39;15.50;;;11.73;;
6342;SDS011;3204;42.698;23.298;2022-10-16T04:19:04;20.47;;;12.27;;
6342;SDS011;3204;42.698;23.298;2022-10-16T04:21:30;17.70;;;12.97;;
6342;SDS011;3204;42.698;23.298;2022-10-16T04:23:56;13.83;;;12.17;;
6342;SDS011;3204;42.698;23.298;2022-10-16T04:26:21;20.87;;;13.57;;
6342;SDS011;3204;42.698;23.298;2022-10-16T04:28:47;18.17;;;14.37;;
6342;SDS011;3204;42.698;23.298;2022-10-16T04:31:13;25.87;;;15.70;;
6342;SDS011;3204;42.698;23.298;2022-10-16T04:33:38;47.03;;;22.30;;
6342;SDS011;3204;42.698;23.298;2022-10-16T04:36:03;150.10;;;52.47;;
6342;SDS011;3204;42.698;23.298;2022-10-16T04:38:29;159.90;;;54.43;;
6342;SDS011;3204;42.698;23.298;2022-10-16T04:40:55;104.43;;;39.87;;
6342;SDS011;3204;42.698;23.298;2022-10-16T04:43:21;81.93;;;31.23;;
6342;SDS011;3204;42.698;23.298;2022-10-16T04:45:47;57.97;;;27.60;;
6342;SDS011;3204;42.698;23.298;2022-10-16T04:48:15;71.10;;;30.43;;
6342;SDS011;3204;42.698;23.298;2022-10-16T04:50:40;68.03;;;29.60;;
6342;SDS011;3204;42.698;23.298;2022-10-16T04:53:06;59.43;;;27.87;;
6342;SDS011;3204;42.698;23.298;2022-10-16T04:55:32;50.37;;;23.60;;
6342;SDS011;3204;42.698;23.298;2022-10-16T04:57:57;34.60;;;17.83;;
6342;SDS011;3204;42.698;23.298;2022-10-16T05:00:23;33.60;;;16.60;;
6342;SDS011;3204;42.698;23.298;2022-10-16T05:02:52;25.93;;;16.63;;
6342;SDS011;3204;42.698;23.298;2022-10-16T05:05:17;30.23;;;17.37;;
6342;SDS011;3204;42.698;23.298;2022-10-16T05:07:44;34.97;;;19.90;;
6342;SDS011;3204;42.698;23.298;2022-10-16T05:10:14;41.33;;;22.00;;
6342;SDS011;3204;42.698;23.298;2022-10-16T05:12:40;39.97;;;22.20;;
6342;SDS011;3204;42.698;23.298;2022-10-16T05:15:06;37.93;;;21.50;;
6342;SDS011;3204;42.698;23.298;2022-10-16T05:17:31;42.60;;;21.23;;
6342;SDS011;3204;42.698;23.298;2022-10-16T05:19:57;41.57;;;20.50;;
6342;SDS011;3204;42.698;23.298;2022-10-16T05:22:22;28.40;;;19.27;;
6342;SDS011;3204;42.698;23.298;2022-10-16T05:24:48;32.70;;;19.23;;
6342;SDS011;3204;42.698;23.298;2022-10-16T05:27:14;27.50;;;15.70;;
6342;SDS011;3204;42.698;23.298;2022-10-16T05:29:47;38.03;;;17.80;;
6342;SDS011;3204;42.698;23.298;2022-10-16T05:32:14;30.43;;;15.33;;
6342;SDS011;3204;42.698;23.298;2022-10-16T05:34:41;29.50;;;15.17;;
6342;SDS011;3204;42.698;23.298;2022-10-16T05:37:06;29.77;;;15.90;;
6342;SDS011;3204;42.698;23.298;2022-10-16T05:39:32;32.43;;;17.97;;
6342;SDS011;3204;42.698;23.298;2022-10-16T05:41:58;23.00;;;17.03;;
6342;SDS011;3204;42.698;23.298;2022-10-16T05:44:23;26.27;;;17.17;;
6342;SDS011;3204;42.698;23.298;2022-10-16T05:46:49;22.80;;;15.50;;
6342;SDS011;3204;42.698;23.298;2022-10-16T05:49:15;23.43;;;15.10;;
6342;SDS011;3204;42.698;23.298;2022-10-16T05:51:40;23.97;;;15.27;;
6342;SDS011;3204;42.698;23.298;2022-10-16T05:54:06;20.17;;;13.17;;
6342;SDS011;3204;42.698;23.298;2022-10-16T05:56:32;22.10;;;13.60;;
6342;SDS011;3204;42.698;23.298;2022-10-16T05:58:58;17.97;;;13.30;;
6342;SDS011;3204;42.698;23.298;2022-10-16T06:01:23;16.73;;;13.00;;
6342;SDS011;3204;42.698;23.298;2022-10-16T06:03:52;19.77;;;12.67;;
6342;SDS011;3204;42.698;23.298;2022-10-16T06:06:21;15.57;;;13.30;;
6342;SDS011;3204;42.698;23.298;2022-10-16T06:08:51;20.20;;;12.83;;
6342;SDS011;3204;42.698;23.298;2022-10-16T06:11:19;18.30;;;12.57;;
6342;SDS011;3204;42.698;23.298;2022-10-16T06:13:50;19.07;;;12.07;;
6342;SDS011;3204;42.698;23.298;2022-10-16T06:16:16;16.43;;;11.83;;
6342;SDS011;3204;42.698;23.298;2022-10-16T06:18:42;12.33;;;10.67;;
6342;SDS011;3204;42.698;23.298;2022-10-16T06:21:08;16.10;;;11.93;;
6342;SDS011;3204;42.698;23.298;2022-10-16T06:23:39;105.53;;;16.37;;
6342;SDS011;3204;42.698;23.298;2022-10-16T06:26:09;13.23;;;9.77;;
6342;SDS011;3204;42.698;23.298;2022-10-16T06:28:37;14.77;;;11.43;;
6342;SDS011;3204;42.698;23.298;2022-10-16T06:31:04;11.55;;;10.10;;
6342;SDS011;3204;42.698;23.298;2022-10-16T06:33:31;12.25;;;9.95;;
6342;SDS011;3204;42.698;23.298;2022-10-16T06:36:00;45.53;;;12.00;;
6342;SDS011;3204;42.698;23.298;2022-10-16T06:38:29;13.57;;;12.13;;
6342;SDS011;3204;42.698;23.298;2022-10-16T06:40:56;16.95;;;11.00;;
6342;SDS011;3204;42.698;23.298;2022-10-16T06:43:21;15.30;;;11.00;;
6342;SDS011;3204;42.698;23.298;2022-10-16T06:45:53;13.73;;;11.50;;
6342;SDS011;3204;42.698;23.298;2022-10-16T06:48:20;10.95;;;9.90;;
6342;SDS011;3204;42.698;23.298;2022-10-16T06:53:48;14.55;;;10.57;;
6342;SDS011;3204;42.698;23.298;2022-10-16T06:56:24;14.68;;;10.77;;
6342;SDS011;3204;42.698;23.298;2022-10-16T06:58:52;11.98;;;10.80;;
6342;SDS011;3204;42.698;23.298;2022-10-16T07:01:18;12.35;;;11.05;;
6342;SDS011;3204;42.698;23.298;2022-10-16T07:03:46;11.90;;;10.80;;
6342;SDS011;3204;42.698;23.298;2022-10-16T07:06:12;11.32;;;10.27;;
6342;SDS011;3204;42.698;23.298;2022-10-16T07:08:41;10.57;;;9.68;;
6342;SDS011;3204;42.698;23.298;2022-10-16T07:11:13;11.52;;;10.38;;
6342;SDS011;3204;42.698;23.298;2022-10-16T07:13:41;11.43;;;9.60;;
6342;SDS011;3204;42.698;23.298;2022-10-16T07:16:12;10.60;;;9.52;;
6342;SDS011;3204;42.698;23.298;2022-10-16T07:18:40;11.38;;;10.38;;
6342;SDS011;3204;42.698;23.298;2022-10-16T07:21:08;12.05;;;10.77;;
6342;SDS011;3204;42.698;23.298;2022-10-16T07:23:35;13.18;;;11.00;;
6342;SDS011;3204;42.698;23.298;2022-10-16T07:26:01;13.48;;;12.00;;
6342;SDS011;3204;42.698;23.298;2022-10-16T07:28:28;12.73;;;11.43;;
6342;SDS011;3204;42.698;23.298;2022-10-16T07:30:53;13.10;;;11.73;;
6342;SDS011;3204;42.698;23.298;2022-10-16T07:33:19;11.15;;;10.10;;
6342;SDS011;3204;42.698;23.298;2022-10-16T07:35:49;12.32;;;11.15;;
6342;SDS011;3204;42.698;23.298;2022-10-16T07:38:15;13.45;;;11.43;;
6342;SDS011;3204;42.698;23.298;2022-10-16T07:40:41;11.93;;;10.32;;
6342;SDS011;3204;42.698;23.298;2022-10-16T07:43:06;13.13;;;11.80;;
6342;SDS011;3204;42.698;23.298;2022-10-16T07:45:32;12.73;;;11.48;;
6342;SDS011;3204;42.698;23.298;2022-10-16T07:47:57;13.88;;;11.45;;
6342;SDS011;3204;42.698;23.298;2022-10-16T07:50:23;18.42;;;12.18;;
6342;SDS011;3204;42.698;23.298;2022-10-16T07:52:49;13.82;;;12.27;;
6342;SDS011;3204;42.698;23.298;2022-10-16T07:55:14;13.90;;;12.50;;
6342;SDS011;3204;42.698;23.298;2022-10-16T07:57:40;13.90;;;12.27;;
6342;SDS011;3204;42.698;23.298;2022-10-16T08:00:06;15.65;;;14.00;;
6342;SDS011;3204;42.698;23.298;2022-10-16T08:02:32;14.18;;;12.80;;
6342;SDS011;3204;42.698;23.298;2022-10-16T08:04:57;14.23;;;12.93;;
6342;SDS011;3204;42.698;23.298;2022-10-16T08:07:23;19.90;;;15.48;;
6342;SDS011;3204;42.698;23.298;2022-10-16T08:09:49;16.08;;;14.38;;
6342;SDS011;3204;42.698;23.298;2022-10-16T08:12:16;16.58;;;13.77;;
6342;SDS011;3204;42.698;23.298;2022-10-16T08:14:42;18.40;;;13.75;;
6342;SDS011;3204;42.698;23.298;2022-10-16T08:17:08;15.35;;;11.45;;
6342;SDS011;3204;42.698;23.298;2022-10-16T08:19:33;12.57;;;11.38;;
6342;SDS011;3204;42.698;23.298;2022-10-16T08:21:59;13.93;;;12.25;;
6342;SDS011;3204;42.698;23.298;2022-10-16T08:24:26;10.98;;;10.07;;
6342;SDS011;3204;42.698;23.298;2022-10-16T08:26:55;9.70;;;9.00;;
6342;SDS011;3204;42.698;23.298;2022-10-16T08:29:20;9.00;;;8.20;;
6342;SDS011;3204;42.698;23.298;2022-10-16T08:31:46;9.20;;;7.80;;
6342;SDS011;3204;42.698;23.298;2022-10-16T08:34:11;8.63;;;7.85;;
6342;SDS011;3204;42.698;23.298;2022-10-16T08:36:37;8.32;;;7.70;;
6342;SDS011;3204;42.698;23.298;2022-10-16T08:39:03;8.23;;;7.45;;
6342;SDS011;3204;42.698;23.298;2022-10-16T08:41:36;8.95;;;8.07;;
6342;SDS011;3204;42.698;23.298;2022-10-16T08:44:18;9.25;;;8.55;;
6342;SDS011;3204;42.698;23.298;2022-10-16T08:47:12;8.25;;;7.68;;
6342;SDS011;3204;42.698;23.298;2022-10-16T08:49:53;12.50;;;8.68;;
6342;SDS011;3204;42.698;23.298;2022-10-16T08:52:21;43.60;;;9.40;;
6342;SDS011;3204;42.698;23.298;2022-10-16T08:54:49;8.40;;;7.15;;
6342;SDS011;3204;42.698;23.298;2022-10-16T08:57:19;8.32;;;7.65;;
6342;SDS011;3204;42.698;23.298;2022-10-16T08:59:46;8.05;;;7.53;;
6342;SDS011;3204;42.698;23.298;2022-10-16T09:02:23;7.95;;;7.43;;
6342;SDS011;3204;42.698;23.298;2022-10-16T09:08:07;5.95;;;5.65;;
6342;SDS011;3204;42.698;23.298;2022-10-16T09:21:48;5.35;;;4.97;;
6342;SDS011;3204;42.698;23.298;2022-10-16T09:24:15;6.30;;;5.90;;
6342;SDS011;3204;42.698;23.298;2022-10-16T09:26:43;4.45;;;4.15;;
6342;SDS011;3204;42.698;23.298;2022-10-16T09:29:13;4.57;;;4.20;;
6342;SDS011;3204;42.698;23.298;2022-10-16T09:31:40;4.65;;;4.35;;
6342;SDS011;3204;42.698;23.298;2022-10-16T09:34:06;5.68;;;4.10;;
6342;SDS011;3204;42.698;23.298;2022-10-16T09:36:56;4.82;;;4.53;;
6342;SDS011;3204;42.698;23.298;2022-10-16T09:39:24;4.30;;;4.00;;
6342;SDS011;3204;42.698;23.298;2022-10-16T09:41:50;4.90;;;4.50;;
6342;SDS011;3204;42.698;23.298;2022-10-16T09:44:24;5.43;;;4.97;;
6342;SDS011;3204;42.698;23.298;2022-10-16T09:47:02;9.45;;;5.00;;
6342;SDS011;3204;42.698;23.298;2022-10-16T09:49:54;4.57;;;4.30;;
6342;SDS011;3204;42.698;23.298;2022-10-16T09:52:21;4.85;;;4.65;;
6342;SDS011;3204;42.698;23.298;2022-10-16T09:54:50;4.45;;;4.15;;
6342;SDS011;3204;42.698;23.298;2022-10-16T09:57:48;3.80;;;3.60;;
6342;SDS011;3204;42.698;23.298;2022-10-16T10:00:18;4.20;;;4.00;;
6342;SDS011;3204;42.698;23.298;2022-10-16T10:02:44;4.03;;;3.83;;
6342;SDS011;3204;42.698;23.298;2022-10-16T10:05:17;4.30;;;4.10;;
6342;SDS011;3204;42.698;23.298;2022-10-16T10:07:57;4.20;;;4.00;;
6342;SDS011;3204;42.698;23.298;2022-10-16T10:10:26;4.95;;;4.57;;
6342;SDS011;3204;42.698;23.298;2022-10-16T10:12:54;5.10;;;4.80;;
6342;SDS011;3204;42.698;23.298;2022-10-16T10:15:20;4.55;;;4.18;;
6342;SDS011;3204;42.698;23.298;2022-10-16T10:17:50;4.85;;;4.35;;
6342;SDS011;3204;42.698;23.298;2022-10-16T10:22:55;5.00;;;4.70;;
6342;SDS011;3204;42.698;23.298;2022-10-16T10:31:06;5.47;;;4.97;;
6342;SDS011;3204;42.698;23.298;2022-10-16T10:33:46;4.95;;;4.45;;
6342;SDS011;3204;42.698;23.298;2022-10-16T10:36:39;5.03;;;4.68;;
6342;SDS011;3204;42.698;23.298;2022-10-16T10:39:13;4.72;;;4.43;;
6342;SDS011;3204;42.698;23.298;2022-10-16T10:55:21;5.20;;;4.90;;
6342;SDS011;3204;42.698;23.298;2022-10-16T11:09:09;5.68;;;5.20;;
6342;SDS011;3204;42.698;23.298;2022-10-16T11:11:48;5.13;;;4.82;;
6342;SDS011;3204;42.698;23.298;2022-10-16T11:14:30;4.47;;;4.28;;
6342;SDS011;3204;42.698;23.298;2022-10-16T11:17:02;5.03;;;4.72;;
6342;SDS011;3204;42.698;23.298;2022-10-16T11:19:35;5.40;;;5.00;;
6342;SDS011;3204;42.698;23.298;2022-10-16T11:24:51;5.00;;;4.70;;
6342;SDS011;3204;42.698;23.298;2022-10-16T11:27:43;7.22;;;6.53;;
6342;SDS011;3204;42.698;23.298;2022-10-16T11:35:47;8.85;;;4.78;;
6342;SDS011;3204;42.698;23.298;2022-10-16T11:40:56;6.68;;;6.03;;
